createdAt,value
2018-12-04T00:02:39.992Z,9.94
2018-12-04T00:07:42.976Z,9.95
2018-12-04T00:12:45.718Z,9.97
2018-12-04T00:17:48.719Z,9.98
2018-12-04T00:22:51.615Z,9.99
2018-12-04T00:27:54.384Z,10.00
2018-12-04T00:32:57.353Z,10.03
2018-12-04T00:38:00.232Z,10.06
2018-12-04T00:43:03.154Z,10.08
2018-12-04T00:48:06.055Z,10.11
2018-12-04T00:53:09.876Z,10.15
2018-12-04T00:58:12.566Z,10.18
2018-12-04T01:03:15.557Z,10.20
2018-12-04T01:08:18.507Z,10.26
2018-12-04T01:13:21.462Z,10.36
2018-12-04T01:18:25.381Z,10.41
2018-12-04T01:23:28.077Z,10.41
2018-12-04T01:28:31.049Z,10.43
2018-12-04T01:33:34.689Z,10.42
2018-12-04T01:38:37.433Z,10.43
2018-12-04T01:43:40.206Z,10.41
2018-12-04T01:48:43.094Z,10.38
2018-12-04T01:53:45.865Z,10.38
2018-12-04T01:58:48.721Z,10.36
2018-12-04T02:03:51.624Z,10.38
2018-12-04T02:08:54.425Z,10.37
2018-12-04T02:13:57.625Z,10.37
2018-12-04T02:19:00.564Z,10.39
2018-12-04T02:24:03.424Z,10.39
2018-12-04T02:29:06.636Z,10.42
2018-12-04T02:34:09.533Z,10.44
2018-12-04T02:39:12.477Z,10.42
2018-12-04T02:44:15.377Z,10.44
2018-12-04T02:49:18.133Z,10.49
2018-12-04T02:54:20.990Z,10.51
2018-12-04T02:59:23.901Z,10.52
2018-12-04T03:04:27.241Z,10.51
2018-12-04T03:09:30.102Z,10.48
2018-12-04T03:14:33.048Z,10.43
2018-12-04T03:19:35.736Z,10.34
2018-12-04T03:24:38.568Z,10.09
2018-12-04T03:29:41.352Z,9.91
2018-12-04T03:34:44.023Z,9.74
2018-12-04T03:39:48.049Z,9.68
2018-12-04T03:44:52.049Z,9.60
2018-12-04T03:49:54.917Z,9.57
2018-12-04T03:54:57.620Z,9.52
2018-12-04T04:00:00.491Z,9.45
2018-12-04T04:05:03.766Z,9.44
2018-12-04T04:10:07.495Z,9.44
2018-12-04T04:15:10.522Z,9.46
2018-12-04T04:20:13.292Z,9.41
2018-12-04T04:25:16.061Z,9.39
2018-12-04T04:30:18.739Z,9.37
2018-12-04T04:35:21.529Z,9.37
2018-12-04T04:40:24.309Z,9.36
2018-12-04T04:45:27.079Z,9.33
2018-12-04T04:50:29.853Z,9.34
2018-12-04T04:55:32.571Z,9.31
2018-12-04T05:00:35.625Z,9.24
2018-12-04T05:05:40.449Z,9.18
2018-12-04T05:10:43.365Z,9.14
2018-12-04T05:15:46.105Z,9.14
2018-12-04T05:20:48.834Z,9.11
2018-12-04T05:25:51.493Z,9.07
2018-12-04T05:30:54.243Z,9.03
2018-12-04T05:35:57.087Z,9.00
2018-12-04T05:40:59.981Z,9.00
2018-12-04T05:46:03.609Z,8.98
2018-12-04T05:51:06.511Z,8.92
2018-12-04T05:56:12.210Z,8.87
2018-12-04T06:01:15.428Z,8.85
2018-12-04T06:06:19.653Z,8.83
2018-12-04T06:11:22.685Z,8.83
2018-12-04T06:16:25.774Z,8.81
2018-12-04T06:21:28.857Z,8.83
2018-12-04T06:26:31.760Z,8.82
2018-12-04T06:31:41.444Z,8.82
2018-12-04T06:36:44.441Z,8.77
2018-12-04T06:41:47.204Z,8.72
2018-12-04T06:46:50.144Z,8.70
2018-12-04T06:51:53.115Z,8.72
2018-12-04T06:56:55.755Z,8.72
2018-12-04T07:01:58.838Z,8.68
2018-12-04T07:07:01.677Z,8.70
2018-12-04T07:12:04.605Z,8.69
2018-12-04T07:17:07.556Z,8.63
2018-12-04T07:22:10.381Z,8.58
2018-12-04T07:27:13.308Z,8.53
2018-12-04T07:32:16.105Z,8.51
2018-12-04T07:37:18.829Z,8.46
2018-12-04T07:42:21.738Z,8.39
2018-12-04T07:47:24.852Z,8.38
2018-12-04T07:52:27.601Z,8.42
2018-12-04T07:57:30.446Z,8.41
2018-12-04T08:02:33.214Z,8.38
2018-12-04T08:07:36.093Z,8.36
2018-12-04T08:12:38.893Z,8.39
2018-12-04T08:17:42.960Z,8.44
2018-12-04T08:22:46.002Z,8.48
2018-12-04T08:27:48.618Z,8.51
2018-12-04T08:32:51.533Z,8.61
2018-12-04T08:37:54.244Z,8.77
2018-12-04T08:42:57.037Z,8.89
2018-12-04T08:47:59.796Z,8.98
2018-12-04T08:53:02.731Z,9.09
2018-12-04T08:58:05.644Z,9.14
2018-12-04T09:03:08.567Z,9.45
2018-12-04T09:08:11.403Z,9.77
2018-12-04T09:13:14.393Z,10.15
2018-12-04T09:18:17.366Z,10.59
2018-12-04T09:23:20.325Z,10.53
2018-12-04T09:28:23.282Z,10.36
2018-12-04T09:33:26.449Z,10.16
2018-12-04T09:38:29.417Z,10.14
2018-12-04T09:43:32.227Z,10.32
2018-12-04T09:48:35.233Z,10.27
2018-12-04T09:53:39.017Z,10.25
2018-12-04T09:58:41.846Z,10.47
2018-12-04T10:03:44.678Z,10.27
2018-12-04T10:08:47.513Z,10.30
2018-12-04T10:13:50.433Z,10.08
2018-12-04T10:18:53.506Z,10.04
2018-12-04T10:23:56.579Z,10.09
2018-12-04T10:28:59.414Z,10.06
2018-12-04T10:34:02.361Z,9.91
2018-12-04T10:44:21.270Z,9.87
2018-12-04T10:49:26.997Z,10.06
2018-12-04T10:54:29.991Z,10.00
2018-12-04T10:59:32.826Z,10.00
2018-12-04T11:04:35.487Z,9.85
2018-12-04T11:09:38.343Z,9.76
2018-12-04T11:14:41.242Z,9.71
2018-12-04T11:19:44.013Z,9.65
2018-12-04T11:24:46.895Z,9.58
2018-12-04T11:29:49.698Z,9.68
2018-12-04T11:34:52.568Z,9.71
2018-12-04T11:39:55.352Z,9.73
2018-12-04T11:44:58.220Z,9.68
2018-12-04T11:50:01.008Z,9.64
2018-12-04T11:55:04.265Z,9.79
2018-12-04T12:00:16.817Z,9.83
2018-12-04T12:05:19.664Z,9.78
2018-12-04T12:10:24.656Z,9.96
2018-12-04T12:15:27.360Z,9.98
2018-12-04T12:20:30.113Z,9.89
2018-12-04T12:25:32.952Z,9.86
2018-12-04T12:30:35.736Z,9.77
2018-12-04T12:35:38.745Z,9.73
2018-12-04T12:40:41.467Z,9.79
2018-12-04T12:45:44.420Z,9.89
2018-12-04T12:50:47.199Z,10.06
2018-12-04T12:55:50.210Z,10.22
2018-12-04T13:00:53.007Z,10.37
2018-12-04T13:05:55.854Z,10.29
2018-12-04T13:10:58.761Z,10.16
2018-12-04T13:16:01.612Z,9.99
2018-12-04T13:21:04.602Z,9.88
2018-12-04T13:26:07.513Z,9.83
2018-12-04T13:31:10.327Z,10.04
2018-12-04T13:36:13.371Z,10.02
2018-12-04T13:41:16.209Z,10.06
2018-12-04T13:46:19.106Z,10.22
2018-12-04T13:51:22.008Z,10.22
2018-12-04T13:56:24.552Z,10.14
2018-12-04T14:01:27.315Z,10.07
2018-12-04T14:06:30.310Z,9.96
2018-12-04T14:11:33.286Z,9.84
2018-12-04T14:16:36.100Z,9.71
2018-12-04T14:21:38.983Z,9.66
2018-12-04T14:26:42.090Z,9.45
2018-12-04T14:31:45.216Z,9.29
2018-12-04T14:36:48.885Z,9.12
2018-12-04T14:41:52.024Z,8.94
2018-12-04T14:46:54.844Z,8.82
2018-12-04T14:51:57.885Z,8.75
2018-12-04T14:57:00.764Z,8.65
2018-12-04T15:02:03.884Z,8.49
2018-12-04T15:07:06.943Z,8.38
2018-12-04T15:12:10.017Z,8.33
2018-12-04T15:17:12.767Z,8.28
2018-12-04T15:22:15.580Z,8.22
2018-12-04T15:27:18.650Z,8.16
2018-12-04T15:32:21.365Z,8.02
2018-12-04T15:37:24.426Z,7.97
2018-12-04T15:42:27.406Z,7.87
2018-12-04T15:47:30.454Z,7.81
2018-12-04T15:52:33.430Z,7.68
2018-12-04T15:57:36.316Z,7.64
2018-12-04T16:02:39.398Z,7.55
2018-12-04T16:07:42.328Z,7.53
2018-12-04T16:12:45.291Z,7.52
2018-12-04T16:17:48.159Z,7.41
2018-12-04T16:22:50.911Z,7.33
2018-12-04T16:27:53.720Z,7.25
2018-12-04T16:32:56.570Z,7.15
2018-12-04T16:37:59.600Z,7.10
2018-12-04T16:43:02.428Z,7.02
2018-12-04T16:48:05.497Z,6.94
2018-12-04T16:53:08.286Z,6.87
2018-12-04T16:58:11.193Z,6.76
2018-12-04T17:03:14.065Z,6.64
2018-12-04T17:08:16.928Z,6.62
2018-12-04T17:13:19.965Z,6.59
2018-12-04T17:18:22.641Z,6.59
2018-12-04T17:23:25.898Z,6.56
2018-12-04T17:28:28.969Z,6.44
2018-12-04T17:33:32.131Z,6.41
2018-12-04T17:38:34.952Z,6.32
2018-12-04T17:43:37.854Z,6.31
2018-12-04T17:48:40.806Z,6.19
2018-12-04T17:53:43.540Z,6.10
2018-12-04T17:58:48.232Z,6.10
2018-12-04T18:03:50.887Z,6.06
2018-12-04T18:08:53.877Z,6.07
2018-12-04T18:13:58.701Z,6.00
2018-12-04T18:19:03.005Z,5.93
2018-12-04T18:24:06.037Z,5.87
2018-12-04T18:29:08.844Z,5.82
2018-12-04T18:34:11.689Z,5.73
2018-12-04T18:39:15.026Z,5.65
2018-12-04T18:44:18.629Z,5.62
2018-12-04T18:49:21.326Z,5.59
2018-12-04T18:54:24.171Z,5.59
2018-12-04T18:59:27.237Z,5.55
2018-12-04T19:04:30.214Z,5.48
2018-12-04T19:09:33.158Z,5.46
2018-12-04T19:14:36.180Z,5.40
2018-12-04T19:19:39.101Z,5.37
2018-12-04T19:24:41.917Z,5.29
2018-12-04T19:29:44.684Z,5.31
2018-12-04T19:34:47.586Z,5.25
2018-12-04T19:39:50.297Z,5.25
2018-12-04T19:44:53.115Z,5.26
2018-12-04T19:49:56.088Z,5.25
2018-12-04T19:54:59.057Z,5.25
2018-12-04T20:00:02.248Z,5.23
2018-12-04T20:05:06.749Z,5.25
2018-12-04T20:10:09.857Z,5.26
2018-12-04T20:15:13.164Z,5.27
2018-12-04T20:20:16.087Z,5.25
2018-12-04T20:25:19.300Z,5.24
2018-12-04T20:30:22.213Z,5.20
2018-12-04T20:35:25.087Z,5.23
2018-12-04T20:40:31.568Z,5.20
2018-12-04T20:45:32.973Z,5.18
2018-12-04T20:50:35.893Z,5.15
2018-12-04T20:55:38.833Z,5.07
2018-12-04T21:00:42.786Z,5.05
2018-12-04T21:05:45.786Z,5.04
2018-12-04T21:10:49.519Z,4.93
2018-12-04T21:15:52.365Z,4.83
2018-12-04T21:20:55.371Z,4.74
2018-12-04T21:25:58.215Z,4.68
2018-12-04T21:31:07.021Z,4.64
2018-12-04T21:36:15.865Z,4.62
2018-12-04T21:41:24.678Z,4.60
2018-12-04T21:46:33.726Z,4.55
2018-12-04T21:51:36.521Z,4.54
2018-12-04T21:56:39.433Z,4.50
2018-12-04T22:01:42.508Z,4.46
2018-12-04T22:06:45.286Z,4.43
2018-12-04T22:11:48.086Z,4.40
2018-12-04T22:16:50.891Z,4.36
2018-12-04T22:21:53.804Z,4.35
2018-12-04T22:26:56.693Z,4.33
2018-12-04T22:31:59.559Z,4.28
2018-12-04T22:37:02.424Z,4.30
2018-12-04T22:42:05.276Z,4.30
2018-12-04T22:47:08.278Z,4.30
2018-12-04T22:52:11.188Z,4.26
2018-12-04T22:57:14.006Z,4.23
2018-12-04T23:02:17.001Z,4.21
2018-12-04T23:07:19.985Z,4.18
2018-12-04T23:12:23.189Z,4.17
2018-12-04T23:17:26.230Z,4.12
2018-12-04T23:22:29.246Z,4.14
2018-12-04T23:27:32.132Z,4.10
2018-12-04T23:32:36.129Z,4.05
2018-12-04T23:37:39.192Z,4.00
2018-12-04T23:42:42.068Z,4.01
2018-12-04T23:47:44.902Z,4.05
2018-12-04T23:52:47.857Z,3.99
2018-12-04T23:57:50.801Z,4.00
